Arthurdale, West Virginia
Current Conditions -  °F | °C
As of 12:53 AM on Thursday 18 Dec 2014 (Local Time) from KMGW Reporting Station
Overcast Overcast  
Wind Chill: 21°   Ceiling: 2800
Heat Index: 30°   Visibility: 10mi
Dew Point: 18°   Wind: 10mph
Humidity: 61%   Direction: 280°W
Pressure: 30.16"   Gusts: NA
Location:  39.49°N, 79.82°W
Report Text: KMGW 180553Z AUTO 28009KT 10SM BKN028 OVC034 M01/M08 A3016 RMK AO2 SLP224 60000 T10111078 10000 21011 51007 TSNO
Loading
Personal Weather Stations






























Interactive Weather Map New forecast layout! Learn more

10-Day Weather Forecast

Advertisements
Track Severe Weather on mobile